createdAt,value
2018-12-02T00:01:38.917Z,43.33
2018-12-02T00:04:09.668Z,42.67
2018-12-02T00:06:40.619Z,42.43
2018-12-02T00:09:11.205Z,41.27
2018-12-02T00:11:41.975Z,41.43
2018-12-02T00:14:12.871Z,39.23
2018-12-02T00:16:43.472Z,39.57
2018-12-02T00:19:14.113Z,40.83
2018-12-02T00:21:44.699Z,42.90
2018-12-02T00:24:15.426Z,42.83
2018-12-02T00:26:46.127Z,44.43
2018-12-02T00:29:16.783Z,44.97
2018-12-02T00:31:47.614Z,50.83
2018-12-02T00:34:18.252Z,43.70
2018-12-02T00:36:48.831Z,49.57
2018-12-02T00:39:19.316Z,48.87
2018-12-02T00:41:50.362Z,47.67
2018-12-02T00:44:20.954Z,46.73
2018-12-02T00:46:51.679Z,47.47
2018-12-02T00:49:22.454Z,51.10
2018-12-02T00:51:53.031Z,55.73
2018-12-02T00:54:23.660Z,56.80
2018-12-02T00:56:54.186Z,54.77
2018-12-02T00:59:24.790Z,57.27
2018-12-02T01:01:55.468Z,58.30
2018-12-02T01:04:25.975Z,56.67
2018-12-02T01:06:56.558Z,55.60
2018-12-02T01:09:27.069Z,55.73
2018-12-02T01:11:57.600Z,50.97
2018-12-02T01:14:28.219Z,54.23
2018-12-02T01:16:59.043Z,51.70
2018-12-02T01:19:29.629Z,48.90
2018-12-02T01:22:00.515Z,49.37
2018-12-02T01:24:31.056Z,48.53
2018-12-02T01:27:01.634Z,48.17
2018-12-02T01:29:32.252Z,51.57
2018-12-02T01:32:03.019Z,44.37
2018-12-02T01:34:34.128Z,48.70
2018-12-02T01:37:04.782Z,45.80
2018-12-02T01:39:35.265Z,49.27
2018-12-02T01:42:05.771Z,47.10
2018-12-02T01:44:36.490Z,49.77
2018-12-02T01:47:07.057Z,44.90
2018-12-02T01:49:37.503Z,43.07
2018-12-02T01:52:08.425Z,47.17
2018-12-02T01:54:38.955Z,48.20
2018-12-02T01:57:09.545Z,47.37
2018-12-02T01:59:40.073Z,42.73
2018-12-02T02:02:10.883Z,41.60
2018-12-02T02:04:41.435Z,38.37
2018-12-02T02:07:12.451Z,41.35
2018-12-02T02:09:43.280Z,37.88
2018-12-02T02:12:13.847Z,38.27
2018-12-02T02:14:44.532Z,39.10
2018-12-02T02:17:15.066Z,39.15
2018-12-02T02:19:45.528Z,39.25
2018-12-02T02:22:16.391Z,50.67
2018-12-02T02:24:46.845Z,87.67
2018-12-02T02:27:17.424Z,45.65
2018-12-02T02:29:47.896Z,45.98
2018-12-02T02:32:18.437Z,48.48
2018-12-02T02:34:49.288Z,55.95
2018-12-02T02:37:19.789Z,46.75
2018-12-02T02:39:50.256Z,52.88
2018-12-02T02:42:21.092Z,60.85
2018-12-02T02:44:51.615Z,51.85
2018-12-02T02:47:22.189Z,47.73
2018-12-02T02:49:52.645Z,46.05
2018-12-02T02:52:23.169Z,48.58
2018-12-02T02:54:53.708Z,45.43
2018-12-02T02:57:24.369Z,44.58
2018-12-02T02:59:54.880Z,46.33
2018-12-02T03:02:25.527Z,44.42
2018-12-02T03:04:56.100Z,44.50
2018-12-02T03:07:26.763Z,53.30
2018-12-02T03:09:57.275Z,53.98
2018-12-02T03:12:27.827Z,56.13
2018-12-02T03:14:58.276Z,57.15
2018-12-02T03:17:28.822Z,55.48
2018-12-02T03:19:59.568Z,49.30
2018-12-02T03:22:30.374Z,46.60
2018-12-02T03:25:00.825Z,45.75
2018-12-02T03:27:31.371Z,48.28
2018-12-02T03:30:01.995Z,50.25
2018-12-02T03:32:32.752Z,49.90
2018-12-02T03:35:03.275Z,51.68
2018-12-02T03:37:33.849Z,53.42
2018-12-02T03:40:04.885Z,50.90
2018-12-02T03:42:35.635Z,52.67
2018-12-02T03:45:07.218Z,51.85
2018-12-02T03:47:37.941Z,53.83
2018-12-02T03:50:19.817Z,49.05
2018-12-02T03:52:50.480Z,48.78
2018-12-02T03:55:21.036Z,53.70
2018-12-02T03:57:51.834Z,59.13
2018-12-02T04:00:25.248Z,50.45
2018-12-02T04:02:56.816Z,52.50
2018-12-02T04:05:27.831Z,49.80
2018-12-02T04:07:58.643Z,50.52
2018-12-02T04:10:29.344Z,50.73
2018-12-02T04:12:59.830Z,46.68
2018-12-02T04:15:30.664Z,46.37
2018-12-02T04:18:01.144Z,51.33
2018-12-02T04:20:31.763Z,46.70
2018-12-02T04:23:02.870Z,49.77
2018-12-02T04:25:33.379Z,47.98
2018-12-02T04:28:04.358Z,47.13
2018-12-02T04:30:34.820Z,52.55
2018-12-02T04:33:05.658Z,50.30
2018-12-02T04:35:36.115Z,47.35
2018-12-02T04:38:06.738Z,47.43
2018-12-02T04:40:37.574Z,46.68
2018-12-02T04:43:08.256Z,47.60
2018-12-02T04:45:38.773Z,43.17
2018-12-02T04:48:09.552Z,47.35
2018-12-02T04:50:40.269Z,49.27
2018-12-02T04:53:10.839Z,46.77
2018-12-02T04:55:41.399Z,45.52
2018-12-02T04:58:12.199Z,47.88
2018-12-02T05:00:42.726Z,45.60
2018-12-02T05:03:13.626Z,45.83
2018-12-02T05:05:44.064Z,48.38
2018-12-02T05:08:14.545Z,52.23
2018-12-02T05:10:45.509Z,48.83
2018-12-02T05:13:16.307Z,47.33
2018-12-02T05:15:46.894Z,45.00
2018-12-02T05:18:17.769Z,44.58
2018-12-02T05:20:48.379Z,45.55
2018-12-02T05:23:18.966Z,45.55
2018-12-02T05:25:49.476Z,50.48
2018-12-02T05:28:20.275Z,43.48
2018-12-02T05:30:51.089Z,42.40
2018-12-02T05:33:21.596Z,41.13
2018-12-02T05:35:52.134Z,42.75
2018-12-02T05:38:22.663Z,43.80
2018-12-02T05:40:53.263Z,41.40
2018-12-02T05:43:23.819Z,41.88
2018-12-02T05:45:54.403Z,40.08
2018-12-02T05:48:25.362Z,40.03
2018-12-02T05:50:55.828Z,45.25
2018-12-02T05:53:26.626Z,37.45
2018-12-02T05:55:57.336Z,42.78
2018-12-02T05:58:27.804Z,42.53
2018-12-02T06:00:58.318Z,38.98
2018-12-02T06:03:28.818Z,44.42
2018-12-02T06:05:59.375Z,206.65
2018-12-02T06:08:29.911Z,197.40
2018-12-02T06:11:00.548Z,158.22
2018-12-02T06:13:31.146Z,108.17
2018-12-02T06:16:01.835Z,48.55
2018-12-02T06:18:32.378Z,39.85
2018-12-02T06:21:03.015Z,43.35
2018-12-02T06:23:33.611Z,46.95
2018-12-02T06:26:04.136Z,45.47
2018-12-02T06:28:34.699Z,53.78
2018-12-02T06:31:05.202Z,39.50
2018-12-02T06:33:35.784Z,39.30
2018-12-02T06:36:06.442Z,47.60
2018-12-02T06:38:37.069Z,41.47
2018-12-02T06:41:07.814Z,42.17
2018-12-02T06:43:38.629Z,45.37
2018-12-02T06:46:09.294Z,42.13
2018-12-02T06:48:39.890Z,35.60
2018-12-02T06:51:10.518Z,38.27
2018-12-02T06:53:41.155Z,41.50
2018-12-02T06:56:19.889Z,45.57
2018-12-02T06:59:12.573Z,37.57
2018-12-02T07:01:46.478Z,37.40
2018-12-02T07:04:23.426Z,37.53
2018-12-02T07:06:53.982Z,37.03
2018-12-02T07:09:24.717Z,33.63
2018-12-02T07:11:55.252Z,34.70
2018-12-02T07:14:25.850Z,42.27
2018-12-02T07:16:56.610Z,32.33
2018-12-02T07:19:32.618Z,35.53
2018-12-02T07:22:08.079Z,43.60
2018-12-02T07:24:41.209Z,34.73
2018-12-02T07:27:13.570Z,32.27
2018-12-02T07:29:44.183Z,36.20
2018-12-02T07:32:15.108Z,30.93
2018-12-02T07:35:00.853Z,29.67
2018-12-02T07:37:49.613Z,30.87
2018-12-02T07:40:39.937Z,30.17
2018-12-02T07:43:12.381Z,28.27
2018-12-02T07:45:43.096Z,27.37
2018-12-02T07:48:13.878Z,26.17
2018-12-02T07:50:44.482Z,25.27
2018-12-02T07:53:19.881Z,24.17
2018-12-02T07:55:50.466Z,24.17
2018-12-02T07:58:21.000Z,23.93
2018-12-02T08:00:52.100Z,22.60
2018-12-02T08:03:22.711Z,22.73
2018-12-02T08:05:53.245Z,24.53
2018-12-02T08:08:23.940Z,34.43
2018-12-02T08:10:54.578Z,26.07
2018-12-02T08:13:25.119Z,25.67
2018-12-02T08:15:57.867Z,28.67
2018-12-02T08:18:28.642Z,32.27
2018-12-02T08:20:59.305Z,33.87
2018-12-02T08:23:31.275Z,34.17
2018-12-02T08:26:01.892Z,28.87
2018-12-02T08:28:32.410Z,33.63
2018-12-02T08:31:02.961Z,32.97
2018-12-02T08:33:33.509Z,29.83
2018-12-02T08:36:04.201Z,32.47
2018-12-02T08:38:34.766Z,34.53
2018-12-02T08:41:06.121Z,28.90
2018-12-02T08:43:36.650Z,30.53
2018-12-02T08:46:08.102Z,26.70
2018-12-02T08:48:38.663Z,28.30
2018-12-02T08:51:09.269Z,28.47
2018-12-02T08:53:40.039Z,30.03
2018-12-02T08:56:10.767Z,34.13
2018-12-02T08:58:41.283Z,42.60
2018-12-02T09:01:12.169Z,32.60
2018-12-02T09:03:43.065Z,29.37
2018-12-02T09:06:13.997Z,32.17
2018-12-02T09:08:44.594Z,26.43
2018-12-02T09:11:15.258Z,27.20
2018-12-02T09:13:45.859Z,31.97
2018-12-02T09:16:16.359Z,100.93
2018-12-02T09:19:04.917Z,27.20
2018-12-02T09:21:37.228Z,26.00
2018-12-02T09:24:07.728Z,29.83
2018-12-02T09:26:38.254Z,32.57
2018-12-02T09:29:08.895Z,27.20
2018-12-02T09:31:39.556Z,26.33
2018-12-02T09:34:10.233Z,26.97
2018-12-02T09:36:41.186Z,28.80
2018-12-02T09:39:11.735Z,33.70
2018-12-02T09:41:42.349Z,37.23
2018-12-02T09:44:13.151Z,31.17
2018-12-02T09:46:43.728Z,30.93
2018-12-02T09:49:14.347Z,29.47
2018-12-02T09:51:45.001Z,33.33
2018-12-02T09:54:15.751Z,31.77
2018-12-02T09:56:46.607Z,27.83
2018-12-02T09:59:17.533Z,32.77
2018-12-02T10:01:48.253Z,29.80
2018-12-02T10:04:18.985Z,28.83
2018-12-02T10:06:49.666Z,28.60
2018-12-02T10:09:20.385Z,27.53
2018-12-02T10:11:51.148Z,25.80
2018-12-02T10:14:22.089Z,28.60
2018-12-02T10:16:52.870Z,23.20
2018-12-02T10:19:23.537Z,22.90
2018-12-02T10:21:54.367Z,23.80
2018-12-02T10:24:25.034Z,24.90
2018-12-02T10:26:55.784Z,29.30
2018-12-02T10:29:26.746Z,26.40
2018-12-02T10:31:57.392Z,29.97
2018-12-02T10:34:27.983Z,23.50
2018-12-02T10:36:58.762Z,29.27
2018-12-02T10:39:29.455Z,30.53
2018-12-02T10:42:00.235Z,36.33
2018-12-02T10:44:31.395Z,29.90
2018-12-02T10:47:02.245Z,27.50
2018-12-02T10:49:32.980Z,30.33
2018-12-02T10:52:03.717Z,29.43
2018-12-02T10:54:34.368Z,24.93
2018-12-02T10:57:05.045Z,26.27
2018-12-02T10:59:35.994Z,31.87
2018-12-02T11:02:13.007Z,32.63
2018-12-02T11:04:43.687Z,43.53
2018-12-02T11:07:14.880Z,42.17
2018-12-02T11:09:45.517Z,36.40
2018-12-02T11:12:16.310Z,30.23
2018-12-02T11:14:47.246Z,28.23
2018-12-02T11:17:17.938Z,23.63
2018-12-02T11:19:48.741Z,27.70
2018-12-02T11:22:19.495Z,34.20
2018-12-02T11:24:50.524Z,36.80
2018-12-02T11:27:21.627Z,30.50
2018-12-02T11:29:52.237Z,30.53
2018-12-02T11:32:23.240Z,33.77
2018-12-02T11:34:54.006Z,32.70
2018-12-02T11:37:24.867Z,36.97
2018-12-02T11:39:55.509Z,39.43
2018-12-02T11:42:26.310Z,43.07
2018-12-02T11:44:57.109Z,39.10
2018-12-02T11:47:27.809Z,33.10
2018-12-02T11:49:58.562Z,145.33
2018-12-02T11:52:29.497Z,40.73
2018-12-02T11:55:00.226Z,28.00
2018-12-02T11:57:30.896Z,33.47
2018-12-02T12:00:02.072Z,31.13
2018-12-02T12:02:32.738Z,32.77
2018-12-02T12:05:03.327Z,32.67
2018-12-02T12:07:34.312Z,28.67
2018-12-02T12:10:05.681Z,31.77
2018-12-02T12:12:36.297Z,35.90
2018-12-02T12:15:09.403Z,31.20
2018-12-02T12:17:40.345Z,29.60
2018-12-02T12:20:20.835Z,33.73
2018-12-02T12:22:51.520Z,33.27
2018-12-02T12:25:22.303Z,34.47
2018-12-02T12:27:54.016Z,36.03
2018-12-02T12:30:26.528Z,38.27
2018-12-02T12:32:57.404Z,32.70
2018-12-02T12:35:28.303Z,31.60
2018-12-02T12:37:58.915Z,33.73
2018-12-02T12:43:44.765Z,43.73
2018-12-02T12:49:17.893Z,33.23
2018-12-02T12:51:48.663Z,33.23
2018-12-02T12:54:19.367Z,33.87
2018-12-02T12:56:50.085Z,36.57
2018-12-02T12:59:20.964Z,45.97
2018-12-02T13:01:51.580Z,32.50
2018-12-02T13:04:22.159Z,42.97
2018-12-02T13:06:53.583Z,37.20
2018-12-02T13:09:25.830Z,36.60
2018-12-02T13:11:56.574Z,52.57
2018-12-02T13:14:28.466Z,35.50
2018-12-02T13:16:59.466Z,30.47
2018-12-02T13:19:32.461Z,30.10
2018-12-02T13:22:04.316Z,36.23
2018-12-02T13:24:36.195Z,34.20
2018-12-02T13:27:08.253Z,45.60
2018-12-02T13:29:41.262Z,43.53
2018-12-02T13:32:13.501Z,37.73
2018-12-02T13:34:45.490Z,38.17
2018-12-02T13:37:17.507Z,34.47
2018-12-02T13:39:50.386Z,44.13
2018-12-02T13:42:21.642Z,40.23
2018-12-02T13:44:53.578Z,40.43
2018-12-02T13:47:24.726Z,35.33
2018-12-02T13:49:57.318Z,34.13
2018-12-02T13:52:29.479Z,45.50
2018-12-02T13:55:01.305Z,37.67
2018-12-02T13:57:33.238Z,43.90
2018-12-02T14:00:06.457Z,38.00
2018-12-02T14:02:38.596Z,42.63
2018-12-02T14:05:11.165Z,51.97
2018-12-02T14:07:42.315Z,56.47
2018-12-02T14:10:14.804Z,59.00
2018-12-02T14:12:49.305Z,67.57
2018-12-02T14:15:27.094Z,93.63
2018-12-02T14:18:09.017Z,112.20
2018-12-02T14:20:40.496Z,110.83
2018-12-02T14:23:12.202Z,117.03
2018-12-02T14:25:44.453Z,146.57
2018-12-02T14:28:18.812Z,142.77
2018-12-02T14:30:50.910Z,162.47
2018-12-02T14:33:23.417Z,139.67
2018-12-02T14:35:55.791Z,204.60
2018-12-02T14:38:27.675Z,291.20
2018-12-02T14:40:59.204Z,294.23
2018-12-02T14:43:31.162Z,253.97
2018-12-02T14:46:02.998Z,159.03
2018-12-02T14:48:35.155Z,105.60
2018-12-02T14:51:10.627Z,89.13
2018-12-02T14:53:43.055Z,76.33
2018-12-02T14:56:15.099Z,62.30
2018-12-02T14:58:45.956Z,68.80
2018-12-02T15:01:16.839Z,127.97
2018-12-02T15:03:47.463Z,278.40
2018-12-02T15:06:18.037Z,173.03
2018-12-02T15:08:51.552Z,197.33
2018-12-02T15:11:22.189Z,216.53
2018-12-02T15:13:53.210Z,197.17
2018-12-02T15:16:24.218Z,211.90
2018-12-02T15:18:54.802Z,221.43
2018-12-02T15:21:25.759Z,269.87
2018-12-02T15:23:56.831Z,286.90
2018-12-02T15:26:27.435Z,311.93
2018-12-02T15:28:58.142Z,237.27
2018-12-02T15:31:28.930Z,239.23
2018-12-02T15:34:00.324Z,211.73
2018-12-02T15:36:31.081Z,205.03
2018-12-02T15:39:01.729Z,227.90
2018-12-02T15:41:32.640Z,220.10
2018-12-02T15:44:03.309Z,232.57
2018-12-02T15:46:34.049Z,259.20
2018-12-02T15:49:04.676Z,263.60
2018-12-02T15:51:35.184Z,254.97
2018-12-02T15:54:06.099Z,263.40
2018-12-02T15:56:36.803Z,224.90
2018-12-02T15:59:09.472Z,232.70
2018-12-02T16:01:40.124Z,234.60
2018-12-02T16:04:11.365Z,233.87
2018-12-02T16:06:42.150Z,216.63
2018-12-02T16:09:13.039Z,194.13
2018-12-02T16:11:43.662Z,151.53
2018-12-02T16:14:14.672Z,146.27
2018-12-02T16:16:45.266Z,150.70
2018-12-02T16:19:15.987Z,145.53
2018-12-02T16:21:46.629Z,133.10
2018-12-02T16:24:17.170Z,145.00
2018-12-02T16:26:48.189Z,116.30
2018-12-02T16:29:19.771Z,113.97
2018-12-02T16:31:50.672Z,100.90
2018-12-02T16:34:21.647Z,99.97
2018-12-02T16:36:51.955Z,114.97
2018-12-02T16:39:22.484Z,117.03
2018-12-02T16:41:53.192Z,96.73
2018-12-02T16:44:23.725Z,86.47
2018-12-02T16:46:54.549Z,89.00
2018-12-02T16:49:25.142Z,74.20
2018-12-02T16:51:55.897Z,79.53
2018-12-02T16:54:26.436Z,83.60
2018-12-02T16:56:57.305Z,83.90
2018-12-02T16:59:30.430Z,90.83
2018-12-02T17:02:05.255Z,78.93
2018-12-02T17:04:34.894Z,83.97
2018-12-02T17:07:05.904Z,96.53
2018-12-02T17:09:36.560Z,95.23
2018-12-02T17:12:07.859Z,106.17
2018-12-02T17:14:39.030Z,114.97
2018-12-02T17:17:09.881Z,103.80
2018-12-02T17:19:40.588Z,109.43
2018-12-02T17:22:11.434Z,119.60
2018-12-02T17:24:42.130Z,115.57
2018-12-02T17:27:12.987Z,115.77
2018-12-02T17:29:43.535Z,137.10
2018-12-02T17:32:14.436Z,133.30
2018-12-02T17:34:45.283Z,129.82
2018-12-02T17:37:16.204Z,118.45
2018-12-02T17:39:52.191Z,121.47
2018-12-02T17:42:22.782Z,135.07
2018-12-02T17:44:53.801Z,119.40
2018-12-02T17:47:24.538Z,120.57
2018-12-02T17:49:55.450Z,106.83
2018-12-02T17:52:26.174Z,111.28
2018-12-02T17:54:56.729Z,112.75
2018-12-02T17:57:27.512Z,110.83
2018-12-02T17:59:58.253Z,102.42
2018-12-02T18:02:29.288Z,109.17
2018-12-02T18:04:59.908Z,96.40
2018-12-02T18:07:30.721Z,96.35
2018-12-02T18:10:01.288Z,86.50
2018-12-02T18:12:32.204Z,88.27
2018-12-02T18:15:03.131Z,84.28
2018-12-02T18:17:34.085Z,86.63
2018-12-02T18:20:05.565Z,84.60
2018-12-02T18:22:36.406Z,95.32
2018-12-02T18:25:09.512Z,91.05
2018-12-02T18:27:40.865Z,99.42
2018-12-02T18:30:27.909Z,95.83
2018-12-02T18:33:00.688Z,81.02
2018-12-02T18:36:07.245Z,82.15
2018-12-02T18:38:44.582Z,78.12
2018-12-02T18:41:25.481Z,80.50
2018-12-02T18:43:56.354Z,86.47
2018-12-02T18:46:27.222Z,83.62
2018-12-02T18:48:58.114Z,97.42
2018-12-02T18:51:29.004Z,94.87
2018-12-02T18:54:00.039Z,104.27
2018-12-02T18:56:30.788Z,102.32
2018-12-02T18:59:01.523Z,98.97
2018-12-02T19:01:32.190Z,103.32
2018-12-02T19:04:03.031Z,100.40
2018-12-02T19:06:33.631Z,117.87
2018-12-02T19:09:05.482Z,136.62
2018-12-02T19:11:36.452Z,143.82
2018-12-02T19:14:07.259Z,183.32
2018-12-02T19:16:37.970Z,178.40
2018-12-02T19:19:09.697Z,177.27
2018-12-02T19:21:40.611Z,172.47
2018-12-02T19:24:11.842Z,143.82
2018-12-02T19:26:42.649Z,174.15
2018-12-02T19:29:13.703Z,183.85
2018-12-02T19:31:44.331Z,194.22
2018-12-02T19:34:15.316Z,202.70
2018-12-02T19:36:54.720Z,226.42
2018-12-02T19:39:25.560Z,216.05
2018-12-02T19:41:56.293Z,198.02
2018-12-02T19:44:26.834Z,190.50
2018-12-02T19:46:58.152Z,151.82
2018-12-02T19:49:28.770Z,147.22
2018-12-02T19:51:59.430Z,124.12
2018-12-02T19:54:30.014Z,134.45
2018-12-02T19:57:00.719Z,124.75
2018-12-02T19:59:31.253Z,131.87
2018-12-02T20:02:01.908Z,198.32
2018-12-02T20:04:32.575Z,198.45
2018-12-02T20:07:03.441Z,332.20
2018-12-02T20:09:34.176Z,349.82
2018-12-02T20:12:04.811Z,333.07
2018-12-02T20:14:35.624Z,365.90
2018-12-02T20:17:06.324Z,286.90
2018-12-02T20:19:49.147Z,192.45
2018-12-02T20:22:22.981Z,164.03
2018-12-02T20:24:54.075Z,147.07
2018-12-02T20:27:25.498Z,132.40
2018-12-02T20:29:56.915Z,138.18
2018-12-02T20:32:29.707Z,164.52
2018-12-02T20:35:00.870Z,162.05
2018-12-02T20:37:32.473Z,175.42
2018-12-02T20:40:03.876Z,185.80
2018-12-02T20:42:35.610Z,132.18
2018-12-02T20:45:08.479Z,131.00
2018-12-02T20:47:39.523Z,148.93
2018-12-02T20:50:15.362Z,131.47
2018-12-02T20:52:47.175Z,135.37
2018-12-02T20:55:23.788Z,148.55
2018-12-02T20:57:59.023Z,130.70
2018-12-02T21:00:30.963Z,183.87
2018-12-02T21:03:36.162Z,183.75
2018-12-02T21:06:13.107Z,178.50
2018-12-02T21:08:44.324Z,140.95
2018-12-02T21:11:17.167Z,128.53
2018-12-02T21:13:49.073Z,118.33
2018-12-02T21:16:20.295Z,107.37
2018-12-02T21:18:54.686Z,107.12
2018-12-02T21:21:28.265Z,103.05
2018-12-02T21:23:59.789Z,111.08
2018-12-02T21:26:30.591Z,306.13
2018-12-02T21:29:01.136Z,312.70
2018-12-02T21:31:32.651Z,311.15
2018-12-02T21:34:02.641Z,286.10
2018-12-02T21:36:33.292Z,246.28
2018-12-02T21:42:03.700Z,220.35
2018-12-02T21:44:37.339Z,170.28
2018-12-02T21:47:10.439Z,158.55
2018-12-02T21:49:44.605Z,151.60
2018-12-02T21:52:15.293Z,155.40
2018-12-02T21:54:46.455Z,141.30
2018-12-02T21:57:20.075Z,128.60
2018-12-02T21:59:52.575Z,125.75
2018-12-02T22:02:23.103Z,117.42
2018-12-02T22:04:53.608Z,112.97
2018-12-02T22:07:24.219Z,115.52
2018-12-02T22:09:54.667Z,107.75
2018-12-02T22:12:25.579Z,108.07
2018-12-02T22:14:56.294Z,101.40
2018-12-02T22:17:26.882Z,99.65
2018-12-02T22:19:57.431Z,102.58
2018-12-02T22:22:28.160Z,99.85
2018-12-02T22:24:58.683Z,106.00
2018-12-02T22:27:29.307Z,106.63
2018-12-02T22:29:59.917Z,110.37
2018-12-02T22:32:30.427Z,115.15
2018-12-02T22:35:00.944Z,112.55
2018-12-02T22:37:31.707Z,106.70
2018-12-02T22:40:02.243Z,106.92
2018-12-02T22:42:32.966Z,100.40
2018-12-02T22:45:03.600Z,103.72
2018-12-02T22:47:34.252Z,91.53
2018-12-02T22:50:05.049Z,95.45
2018-12-02T22:52:35.719Z,105.75
2018-12-02T22:55:07.440Z,105.32
2018-12-02T22:57:38.150Z,120.47
2018-12-02T23:00:33.543Z,130.18
2018-12-02T23:03:06.228Z,125.53
2018-12-02T23:05:36.750Z,132.03
2018-12-02T23:08:07.893Z,143.72
2018-12-02T23:10:38.638Z,147.32
2018-12-02T23:13:10.288Z,151.60
2018-12-02T23:15:42.517Z,197.98
2018-12-02T23:18:14.042Z,171.65
2018-12-02T23:20:44.632Z,161.82
2018-12-02T23:23:15.200Z,165.80
2018-12-02T23:25:45.758Z,161.90
2018-12-02T23:28:16.308Z,138.88
2018-12-02T23:30:47.049Z,141.28
2018-12-02T23:33:17.589Z,134.63
2018-12-02T23:35:48.400Z,142.77
2018-12-02T23:38:18.888Z,140.95
2018-12-02T23:40:49.670Z,140.45
2018-12-02T23:43:20.314Z,138.72
2018-12-02T23:45:50.901Z,151.55
2018-12-02T23:48:21.608Z,134.87
2018-12-02T23:50:52.208Z,147.05
2018-12-02T23:53:22.730Z,154.03
2018-12-02T23:55:53.332Z,144.47
2018-12-02T23:58:24.085Z,157.43
